sensor_id;sensor_type;location;lat;lon;timestamp;pressure;altitude;pressure_sealevel;temperature;humidity
79752;BME280;69234;47.446;21.636;2024-02-21T00:00:22;101245.66;;;6.04;100.00
79752;BME280;69234;47.446;21.636;2024-02-21T00:00:53;101245.81;;;6.01;100.00
79752;BME280;69234;47.446;21.636;2024-02-21T00:01:24;101248.34;;;6.04;100.00
79752;BME280;69234;47.446;21.636;2024-02-21T00:01:55;101244.66;;;6.07;100.00
79752;BME280;69234;47.446;21.636;2024-02-21T00:02:26;101244.66;;;6.07;100.00
79752;BME280;69234;47.446;21.636;2024-02-21T00:02:57;101240.25;;;6.06;100.00
79752;BME280;69234;47.446;21.636;2024-02-21T00:03:30;101241.19;;;6.05;100.00
79752;BME280;69234;47.446;21.636;2024-02-21T00:04:01;101245.56;;;6.06;100.00
79752;BME280;69234;47.446;21.636;2024-02-21T00:04:32;101230.09;;;5.97;100.00
79752;BME280;69234;47.446;21.636;2024-02-21T00:05:03;101237.66;;;6.04;100.00
79752;BME280;69234;47.446;21.636;2024-02-21T00:05:34;101244.72;;;6.05;100.00
79752;BME280;69234;47.446;21.636;2024-02-21T00:06:05;101238.53;;;6.05;100.00
79752;BME280;69234;47.446;21.636;2024-02-21T00:06:36;101237.81;;;6.01;100.00
79752;BME280;69234;47.446;21.636;2024-02-21T00:07:07;101244.72;;;6.05;100.00
79752;BME280;69234;47.446;21.636;2024-02-21T00:07:38;101245.66;;;6.04;100.00
79752;BME280;69234;47.446;21.636;2024-02-21T00:08:09;101239.47;;;6.04;100.00
79752;BME280;69234;47.446;21.636;2024-02-21T00:08:40;101234.31;;;6.01;100.00
79752;BME280;69234;47.446;21.636;2024-02-21T00:09:11;101239.47;;;6.04;100.00
79752;BME280;69234;47.446;21.636;2024-02-21T00:09:42;101226.56;;;5.96;100.00
79752;BME280;69234;47.446;21.636;2024-02-21T00:10:13;101236.03;;;6.02;100.00
79752;BME280;69234;47.446;21.636;2024-02-21T00:10:44;101233.34;;;6.02;100.00
79752;BME280;69234;47.446;21.636;2024-02-21T00:11:15;101229.91;;;6.00;100.00
79752;BME280;69234;47.446;21.636;2024-02-21T00:11:46;101232.50;;;6.01;100.00
79752;BME280;69234;47.446;21.636;2024-02-21T00:12:18;101238.69;;;6.02;100.00
79752;BME280;69234;47.446;21.636;2024-02-21T00:12:49;101240.44;;;6.03;100.00
79752;BME280;69234;47.446;21.636;2024-02-21T00:13:20;101229.97;;;5.98;100.00
79752;BME280;69234;47.446;21.636;2024-02-21T00:13:51;101235.25;;;6.00;100.00
79752;BME280;69234;47.446;21.636;2024-02-21T00:14:22;101236.97;;;6.01;100.00
79752;BME280;69234;47.446;21.636;2024-02-21T00:14:52;101235.09;;;6.03;100.00
79752;BME280;69234;47.446;21.636;2024-02-21T00:15:23;101236.88;;;6.02;100.00
79752;BME280;69234;47.446;21.636;2024-02-21T00:15:54;101236.03;;;6.02;100.00
79752;BME280;69234;47.446;21.636;2024-02-21T00:16:25;101229.97;;;5.98;100.00
79752;BME280;69234;47.446;21.636;2024-02-21T00:16:56;101235.25;;;6.00;100.00
79752;BME280;69234;47.446;21.636;2024-02-21T00:17:27;101235.16;;;6.01;100.00
79752;BME280;69234;47.446;21.636;2024-02-21T00:17:58;101235.16;;;6.01;100.00
79752;BME280;69234;47.446;21.636;2024-02-21T00:18:29;101219.69;;;5.90;100.00
79752;BME280;69234;47.446;21.636;2024-02-21T00:19:00;101231.69;;;5.99;100.00
79752;BME280;69234;47.446;21.636;2024-02-21T00:19:31;101239.78;;;5.98;100.00
79752;BME280;69234;47.446;21.636;2024-02-21T00:20:02;101229.28;;;5.94;100.00
79752;BME280;69234;47.446;21.636;2024-02-21T00:20:33;101238.13;;;5.95;100.00
79752;BME280;69234;47.446;21.636;2024-02-21T00:21:04;101232.91;;;5.93;100.00
79752;BME280;69234;47.446;21.636;2024-02-21T00:21:35;101233.59;;;5.97;100.00
79752;BME280;69234;47.446;21.636;2024-02-21T00:22:06;101238.06;;;5.97;100.00
79752;BME280;69234;47.446;21.636;2024-02-21T00:22:37;101224.16;;;5.90;100.00
79752;BME280;69234;47.446;21.636;2024-02-21T00:23:08;101230.94;;;5.97;100.00
79752;BME280;69234;47.446;21.636;2024-02-21T00:23:39;101246.06;;;5.97;100.00
79752;BME280;69234;47.446;21.636;2024-02-21T00:24:10;101244.34;;;5.95;100.00
79752;BME280;69234;47.446;21.636;2024-02-21T00:24:41;101239.00;;;5.95;100.00
79752;BME280;69234;47.446;21.636;2024-02-21T00:25:12;101233.13;;;5.89;100.00
79752;BME280;69234;47.446;21.636;2024-02-21T00:25:43;101238.34;;;5.90;100.00
79752;BME280;69234;47.446;21.636;2024-02-21T00:26:14;101233.03;;;5.90;100.00
79752;BME280;69234;47.446;21.636;2024-02-21T00:26:45;101235.69;;;5.90;100.00
79752;BME280;69234;47.446;21.636;2024-02-21T00:27:16;101236.56;;;5.91;100.00
79752;BME280;69234;47.446;21.636;2024-02-21T00:27:47;101226.91;;;5.88;100.00
79752;BME280;69234;47.446;21.636;2024-02-21T00:28:18;101237.38;;;5.93;100.00
79752;BME280;69234;47.446;21.636;2024-02-21T00:28:49;101236.53;;;5.92;100.00
79752;BME280;69234;47.446;21.636;2024-02-21T00:29:20;101230.47;;;5.89;100.00
79752;BME280;69234;47.446;21.636;2024-02-21T00:29:51;101227.84;;;5.87;100.00
79752;BME280;69234;47.446;21.636;2024-02-21T00:30:22;101233.84;;;5.92;100.00
79752;BME280;69234;47.446;21.636;2024-02-21T00:30:53;101233.84;;;5.92;100.00
79752;BME280;69234;47.446;21.636;2024-02-21T00:31:25;101234.72;;;5.93;100.00
79752;BME280;69234;47.446;21.636;2024-02-21T00:31:56;101227.59;;;5.92;100.00
79752;BME280;69234;47.446;21.636;2024-02-21T00:32:27;101224.91;;;5.93;100.00
79752;BME280;69234;47.446;21.636;2024-02-21T00:32:57;101237.41;;;5.91;100.00
79752;BME280;69234;47.446;21.636;2024-02-21T00:33:28;101230.25;;;5.93;100.00
79752;BME280;69234;47.446;21.636;2024-02-21T00:33:59;101237.41;;;5.91;100.00
79752;BME280;69234;47.446;21.636;2024-02-21T00:34:30;101234.75;;;5.91;100.00
79752;BME280;69234;47.446;21.636;2024-02-21T00:35:01;101235.69;;;5.90;100.00
79752;BME280;69234;47.446;21.636;2024-02-21T00:35:32;101233.13;;;5.89;100.00
79752;BME280;69234;47.446;21.636;2024-02-21T00:36:04;101237.41;;;5.91;100.00
79752;BME280;69234;47.446;21.636;2024-02-21T00:36:35;101235.84;;;5.87;100.00
79752;BME280;69234;47.446;21.636;2024-02-21T00:37:06;101225.44;;;5.83;100.00
79752;BME280;69234;47.446;21.636;2024-02-21T00:37:37;101233.97;;;5.89;100.00
79752;BME280;69234;47.446;21.636;2024-02-21T00:38:07;101237.41;;;5.91;100.00
79752;BME280;69234;47.446;21.636;2024-02-21T00:38:38;101230.50;;;5.87;100.00
79752;BME280;69234;47.446;21.636;2024-02-21T00:39:10;101229.50;;;5.90;100.00
79752;BME280;69234;47.446;21.636;2024-02-21T00:39:41;101232.06;;;5.91;100.00
79752;BME280;69234;47.446;21.636;2024-02-21T00:40:13;101218.28;;;5.83;100.00
79752;BME280;69234;47.446;21.636;2024-02-21T00:40:47;101235.59;;;5.92;100.00
79752;BME280;69234;47.446;21.636;2024-02-21T00:41:17;101232.16;;;5.90;100.00
79752;BME280;69234;47.446;21.636;2024-02-21T00:41:48;101232.06;;;5.91;100.00
79752;BME280;69234;47.446;21.636;2024-02-21T00:42:20;101223.31;;;5.89;100.00
79752;BME280;69234;47.446;21.636;2024-02-21T00:42:51;101230.25;;;5.93;100.00
79752;BME280;69234;47.446;21.636;2024-02-21T00:43:22;101232.03;;;5.93;100.00
79752;BME280;69234;47.446;21.636;2024-02-21T00:43:54;101229.41;;;5.91;100.00
79752;BME280;69234;47.446;21.636;2024-02-21T00:44:25;101208.47;;;5.84;100.00
79752;BME280;69234;47.446;21.636;2024-02-21T00:44:56;101224.91;;;5.93;100.00
79752;BME280;69234;47.446;21.636;2024-02-21T00:45:27;101221.41;;;5.91;100.00
79752;BME280;69234;47.446;21.636;2024-02-21T00:45:57;101217.97;;;5.89;100.00
79752;BME280;69234;47.446;21.636;2024-02-21T00:46:28;101206.63;;;5.86;100.00
79752;BME280;69234;47.446;21.636;2024-02-21T00:46:59;101210.13;;;5.86;100.00
79752;BME280;69234;47.446;21.636;2024-02-21T00:47:30;101219.78;;;5.89;100.00
79752;BME280;69234;47.446;21.636;2024-02-21T00:48:01;101211.84;;;5.87;100.00
79752;BME280;69234;47.446;21.636;2024-02-21T00:48:32;101218.84;;;5.90;100.00
79752;BME280;69234;47.446;21.636;2024-02-21T00:49:03;101215.19;;;5.92;100.00
79752;BME280;69234;47.446;21.636;2024-02-21T00:49:34;101207.31;;;5.89;100.00
79752;BME280;69234;47.446;21.636;2024-02-21T00:50:06;101209.19;;;5.87;100.00
79752;BME280;69234;47.446;21.636;2024-02-21T00:50:38;101213.38;;;5.93;100.00
79752;BME280;69234;47.446;21.636;2024-02-21T00:51:09;101210.75;;;5.91;100.00
79752;BME280;69234;47.446;21.636;2024-02-21T00:51:40;101215.19;;;5.92;100.00
79752;BME280;69234;47.446;21.636;2024-02-21T00:52:11;101216.03;;;5.93;100.00
79752;BME280;69234;47.446;21.636;2024-02-21T00:52:42;101222.22;;;5.93;100.00
79752;BME280;69234;47.446;21.636;2024-02-21T00:53:13;101216.94;;;5.92;100.00
79752;BME280;69234;47.446;21.636;2024-02-21T00:53:44;101229.28;;;5.94;100.00
79752;BME280;69234;47.446;21.636;2024-02-21T00:54:15;101223.19;;;5.92;100.00
79752;BME280;69234;47.446;21.636;2024-02-21T00:54:46;101231.94;;;5.94;100.00
79752;BME280;69234;47.446;21.636;2024-02-21T00:55:19;101227.56;;;5.93;100.00
79752;BME280;69234;47.446;21.636;2024-02-21T00:55:50;101231.94;;;5.94;100.00
79752;BME280;69234;47.446;21.636;2024-02-21T00:56:21;101227.59;;;5.92;100.00
79752;BME280;69234;47.446;21.636;2024-02-21T00:56:52;101225.84;;;5.92;100.00
79752;BME280;69234;47.446;21.636;2024-02-21T00:57:23;101221.50;;;5.90;100.00
79752;BME280;69234;47.446;21.636;2024-02-21T00:57:54;101226.75;;;5.91;100.00
79752;BME280;69234;47.446;21.636;2024-02-21T00:58:25;101225.84;;;5.92;100.00
79752;BME280;69234;47.446;21.636;2024-02-21T00:58:56;101218.72;;;5.93;100.00
79752;BME280;69234;47.446;21.636;2024-02-21T00:59:27;101224.94;;;5.92;100.00
79752;BME280;69234;47.446;21.636;2024-02-21T00:59:58;101217.84;;;5.92;100.00
79752;BME280;69234;47.446;21.636;2024-02-21T01:00:29;101213.50;;;5.90;100.00
79752;BME280;69234;47.446;21.636;2024-02-21T01:01:03;101210.91;;;5.88;100.00
79752;BME280;69234;47.446;21.636;2024-02-21T01:01:34;101218.75;;;5.91;100.00
79752;BME280;69234;47.446;21.636;2024-02-21T01:02:04;101210.75;;;5.91;100.00
79752;BME280;69234;47.446;21.636;2024-02-21T01:02:35;101209.84;;;5.92;100.00
79752;BME280;69234;47.446;21.636;2024-02-21T01:03:06;101214.38;;;5.90;100.00
79752;BME280;69234;47.446;21.636;2024-02-21T01:03:39;101211.06;;;5.85;100.00
79752;BME280;69234;47.446;21.636;2024-02-21T01:04:11;101207.31;;;5.89;100.00
79752;BME280;69234;47.446;21.636;2024-02-21T01:04:42;101208.16;;;5.90;100.00
79752;BME280;69234;47.446;21.636;2024-02-21T01:05:13;101207.31;;;5.89;100.00
79752;BME280;69234;47.446;21.636;2024-02-21T01:05:43;101194.03;;;5.88;100.00
79752;BME280;69234;47.446;21.636;2024-02-21T01:06:14;101201.03;;;5.90;100.00
79752;BME280;69234;47.446;21.636;2024-02-21T01:06:45;101197.91;;;5.82;100.00
79752;BME280;69234;47.446;21.636;2024-02-21T01:07:16;101204.81;;;5.86;100.00
79752;BME280;69234;47.446;21.636;2024-02-21T01:07:47;101206.53;;;5.87;100.00
79752;BME280;69234;47.446;21.636;2024-02-21T01:08:18;101211.84;;;5.87;100.00
79752;BME280;69234;47.446;21.636;2024-02-21T01:08:49;101205.56;;;5.88;100.00
79752;BME280;69234;47.446;21.636;2024-02-21T01:09:20;101207.31;;;5.89;100.00
79752;BME280;69234;47.446;21.636;2024-02-21T01:09:51;101209.97;;;5.89;100.00
79752;BME280;69234;47.446;21.636;2024-02-21T01:10:22;101206.63;;;5.86;100.00
79752;BME280;69234;47.446;21.636;2024-02-21T01:10:53;101209.34;;;5.84;100.00
79752;BME280;69234;47.446;21.636;2024-02-21T01:11:24;101205.03;;;5.82;100.00
79752;BME280;69234;47.446;21.636;2024-02-21T01:11:55;101197.03;;;5.82;100.00
79752;BME280;69234;47.446;21.636;2024-02-21T01:12:26;101208.38;;;5.85;100.00
79752;BME280;69234;47.446;21.636;2024-02-21T01:12:57;101208.38;;;5.85;100.00
79752;BME280;69234;47.446;21.636;2024-02-21T01:13:28;101205.72;;;5.85;100.00
79752;BME280;69234;47.446;21.636;2024-02-21T01:13:58;101207.47;;;5.86;100.00
79752;BME280;69234;47.446;21.636;2024-02-21T01:14:29;101205.72;;;5.85;100.00
79752;BME280;69234;47.446;21.636;2024-02-21T01:15:00;101208.34;;;5.87;100.00
79752;BME280;69234;47.446;21.636;2024-02-21T01:15:31;101210.91;;;5.88;100.00
79752;BME280;69234;47.446;21.636;2024-02-21T01:16:03;101205.72;;;5.85;100.00
79752;BME280;69234;47.446;21.636;2024-02-21T01:16:34;101203.84;;;5.87;100.00
79752;BME280;69234;47.446;21.636;2024-02-21T01:17:04;101203.16;;;5.84;100.00
79752;BME280;69234;47.446;21.636;2024-02-21T01:17:37;101203.16;;;5.84;100.00
79752;BME280;69234;47.446;21.636;2024-02-21T01:18:08;101203.94;;;5.86;100.00
79752;BME280;69234;47.446;21.636;2024-02-21T01:18:39;101201.44;;;5.83;100.00
79752;BME280;69234;47.446;21.636;2024-02-21T01:19:10;101206.53;;;5.87;100.00
79752;BME280;69234;47.446;21.636;2024-02-21T01:19:41;101202.28;;;5.83;100.00
79752;BME280;69234;47.446;21.636;2024-02-21T01:20:12;101201.19;;;5.87;100.00
79752;BME280;69234;47.446;21.636;2024-02-21T01:20:43;101197.72;;;5.85;100.00
79752;BME280;69234;47.446;21.636;2024-02-21T01:21:15;101199.53;;;5.85;100.00
79752;BME280;69234;47.446;21.636;2024-02-21T01:21:46;101189.22;;;5.79;100.00
79752;BME280;69234;47.446;21.636;2024-02-21T01:22:17;101195.25;;;5.82;100.00
79752;BME280;69234;47.446;21.636;2024-02-21T01:22:48;101196.09;;;5.83;100.00
79752;BME280;69234;47.446;21.636;2024-02-21T01:23:19;101190.69;;;5.84;100.00
79752;BME280;69234;47.446;21.636;2024-02-21T01:23:50;101199.78;;;5.80;100.00
79752;BME280;69234;47.446;21.636;2024-02-21T01:24:21;101200.41;;;5.85;100.00
79752;BME280;69234;47.446;21.636;2024-02-21T01:24:52;101195.31;;;5.81;100.00
79752;BME280;69234;47.446;21.636;2024-02-21T01:25:23;101193.75;;;5.77;100.00
79752;BME280;69234;47.446;21.636;2024-02-21T01:25:54;101189.97;;;5.81;100.00
79752;BME280;69234;47.446;21.636;2024-02-21T01:26:26;101190.13;;;5.78;100.00
79752;BME280;69234;47.446;21.636;2024-02-21T01:26:57;101198.13;;;5.78;100.00
79752;BME280;69234;47.446;21.636;2024-02-21T01:27:27;101193.66;;;5.78;100.00
79752;BME280;69234;47.446;21.636;2024-02-21T01:27:58;101196.41;;;5.77;100.00
79752;BME280;69234;47.446;21.636;2024-02-21T01:28:30;101206.22;;;5.76;100.00
79752;BME280;69234;47.446;21.636;2024-02-21T01:29:03;101200.03;;;5.76;100.00
79752;BME280;69234;47.446;21.636;2024-02-21T01:29:34;101200.91;;;5.76;100.00
79752;BME280;69234;47.446;21.636;2024-02-21T01:30:06;101195.72;;;5.73;100.00
79752;BME280;69234;47.446;21.636;2024-02-21T01:30:37;101190.38;;;5.73;100.00
79752;BME280;69234;47.446;21.636;2024-02-21T01:31:08;101199.19;;;5.75;100.00
79752;BME280;69234;47.446;21.636;2024-02-21T01:31:39;101190.38;;;5.73;100.00
79752;BME280;69234;47.446;21.636;2024-02-21T01:32:10;101190.47;;;5.71;100.00
79752;BME280;69234;47.446;21.636;2024-02-21T01:32:41;101186.16;;;5.69;100.00
79752;BME280;69234;47.446;21.636;2024-02-21T01:33:12;101186.78;;;5.74;100.00
79752;BME280;69234;47.446;21.636;2024-02-21T01:33:43;101186.94;;;5.71;100.00
79752;BME280;69234;47.446;21.636;2024-02-21T01:34:14;101181.59;;;5.71;100.00
79752;BME280;69234;47.446;21.636;2024-02-21T01:34:45;101180.75;;;5.70;100.00
79752;BME280;69234;47.446;21.636;2024-02-21T01:35:15;101186.06;;;5.70;100.00
79752;BME280;69234;47.446;21.636;2024-02-21T01:35:46;101182.63;;;5.68;100.00
79752;BME280;69234;47.446;21.636;2024-02-21T01:36:17;101186.22;;;5.67;100.00
79752;BME280;69234;47.446;21.636;2024-02-21T01:36:49;101180.03;;;5.67;100.00
79752;BME280;69234;47.446;21.636;2024-02-21T01:37:20;101181.84;;;5.66;100.00
79752;BME280;69234;47.446;21.636;2024-02-21T01:37:50;101180.19;;;5.64;100.00
79752;BME280;69234;47.446;21.636;2024-02-21T01:38:22;101168.13;;;5.57;100.00
79752;BME280;69234;47.446;21.636;2024-02-21T01:38:53;101183.66;;;5.66;100.00
79752;BME280;69234;47.446;21.636;2024-02-21T01:39:24;101178.31;;;5.66;100.00
79752;BME280;69234;47.446;21.636;2024-02-21T01:39:55;101173.16;;;5.63;100.00
79752;BME280;69234;47.446;21.636;2024-02-21T01:40:26;101175.72;;;5.64;100.00
79752;BME280;69234;47.446;21.636;2024-02-21T01:40:58;101173.06;;;5.64;100.00
79752;BME280;69234;47.446;21.636;2024-02-21T01:41:32;101162.66;;;5.60;100.00
79752;BME280;69234;47.446;21.636;2024-02-21T01:42:03;101164.44;;;5.59;100.00
79752;BME280;69234;47.446;21.636;2024-02-21T01:42:38;101168.94;;;5.59;100.00
79752;BME280;69234;47.446;21.636;2024-02-21T01:43:19;101167.91;;;5.61;100.00
79752;BME280;69234;47.446;21.636;2024-02-21T01:43:50;101171.44;;;5.62;100.00
79752;BME280;69234;47.446;21.636;2024-02-21T01:44:21;101173.16;;;5.63;100.00
79752;BME280;69234;47.446;21.636;2024-02-21T01:44:52;101174.09;;;5.62;100.00
79752;BME280;69234;47.446;21.636;2024-02-21T01:45:23;101176.75;;;5.62;100.00
79752;BME280;69234;47.446;21.636;2024-02-21T01:45:55;101170.56;;;5.61;100.00
79752;BME280;69234;47.446;21.636;2024-02-21T01:46:26;101166.09;;;5.62;100.00
79752;BME280;69234;47.446;21.636;2024-02-21T01:47:01;101167.81;;;5.63;100.00
79752;BME280;69234;47.446;21.636;2024-02-21T01:47:33;101166.88;;;5.64;100.00
79752;BME280;69234;47.446;21.636;2024-02-21T01:48:05;101169.69;;;5.61;100.00
79752;BME280;69234;47.446;21.636;2024-02-21T01:48:36;101174.84;;;5.64;100.00
79752;BME280;69234;47.446;21.636;2024-02-21T01:49:07;101173.31;;;5.60;100.00
79752;BME280;69234;47.446;21.636;2024-02-21T01:49:38;101180.34;;;5.61;100.00
79752;BME280;69234;47.446;21.636;2024-02-21T01:50:09;101176.91;;;5.59;100.00
79752;BME280;69234;47.446;21.636;2024-02-21T01:50:40;101173.31;;;5.60;100.00
79752;BME280;69234;47.446;21.636;2024-02-21T01:51:11;101172.34;;;5.61;100.00
79752;BME280;69234;47.446;21.636;2024-02-21T01:51:42;101175.91;;;5.61;100.00
79752;BME280;69234;47.446;21.636;2024-02-21T01:52:14;101167.97;;;5.60;100.00
79752;BME280;69234;47.446;21.636;2024-02-21T01:52:49;101168.28;;;5.54;100.00
79752;BME280;69234;47.446;21.636;2024-02-21T01:53:29;101172.53;;;5.58;100.00
79752;BME280;69234;47.446;21.636;2024-02-21T01:54:00;101175.03;;;5.61;100.00
79752;BME280;69234;47.446;21.636;2024-02-21T01:54:32;101178.63;;;5.60;100.00
79752;BME280;69234;47.446;21.636;2024-02-21T01:55:04;101171.59;;;5.59;100.00
79752;BME280;69234;47.446;21.636;2024-02-21T01:55:35;101177.69;;;5.61;100.00
79752;BME280;69234;47.446;21.636;2024-02-21T01:56:07;101174.09;;;5.62;100.00
79752;BME280;69234;47.446;21.636;2024-02-21T01:56:38;101172.34;;;5.61;100.00
79752;BME280;69234;47.446;21.636;2024-02-21T01:57:09;101172.44;;;5.59;100.00
79752;BME280;69234;47.446;21.636;2024-02-21T01:57:42;101173.31;;;5.60;100.00
79752;BME280;69234;47.446;21.636;2024-02-21T01:58:18;101170.72;;;5.58;100.00
79752;BME280;69234;47.446;21.636;2024-02-21T01:58:51;101173.47;;;5.57;100.00
79752;BME280;69234;47.446;21.636;2024-02-21T01:59:23;101166.41;;;5.56;100.00
79752;BME280;69234;47.446;21.636;2024-02-21T01:59:54;101177.88;;;5.58;100.00
79752;BME280;69234;47.446;21.636;2024-02-21T02:00:25;101167.13;;;5.59;100.00
79752;BME280;69234;47.446;21.636;2024-02-21T02:00:57;101165.63;;;5.54;100.00
79752;BME280;69234;47.446;21.636;2024-02-21T02:01:29;101174.31;;;5.57;100.00
79752;BME280;69234;47.446;21.636;2024-02-21T02:02:00;101175.25;;;5.56;100.00
79752;BME280;69234;47.446;21.636;2024-02-21T02:02:31;101168.13;;;5.57;100.00
79752;BME280;69234;47.446;21.636;2024-02-21T02:03:02;101163.09;;;5.51;100.00
79752;BME280;69234;47.446;21.636;2024-02-21T02:03:34;101182.25;;;5.59;100.00
79752;BME280;69234;47.446;21.636;2024-02-21T02:04:06;101173.47;;;5.57;100.00
79752;BME280;69234;47.446;21.636;2024-02-21T02:04:38;101171.59;;;5.59;100.00
79752;BME280;69234;47.446;21.636;2024-02-21T02:05:10;101177.78;;;5.59;100.00
79752;BME280;69234;47.446;21.636;2024-02-21T02:05:46;101161.25;;;5.53;100.00
79752;BME280;69234;47.446;21.636;2024-02-21T02:06:17;101164.59;;;5.56;100.00
79752;BME280;69234;47.446;21.636;2024-02-21T02:06:49;101173.56;;;5.55;100.00
79752;BME280;69234;47.446;21.636;2024-02-21T02:07:21;101169.00;;;5.57;100.00
79752;BME280;69234;47.446;21.636;2024-02-21T02:07:52;101169.06;;;5.56;100.00
79752;BME280;69234;47.446;21.636;2024-02-21T02:08:23;101175.19;;;5.58;100.00
79752;BME280;69234;47.446;21.636;2024-02-21T02:08:54;101163.75;;;5.56;100.00
79752;BME280;69234;47.446;21.636;2024-02-21T02:09:25;101165.47;;;5.57;100.00
79752;BME280;69234;47.446;21.636;2024-02-21T02:09:56;101160.28;;;5.54;100.00
79752;BME280;69234;47.446;21.636;2024-02-21T02:10:27;101172.53;;;5.58;100.00
79752;BME280;69234;47.446;21.636;2024-02-21T02:10:59;101168.44;;;5.51;100.00
79752;BME280;69234;47.446;21.636;2024-02-21T02:11:32;101170.88;;;5.55;100.00
79752;BME280;69234;47.446;21.636;2024-02-21T02:12:03;101170.19;;;5.52;100.00
79752;BME280;69234;47.446;21.636;2024-02-21T02:12:34;101170.03;;;5.55;100.00
79752;BME280;69234;47.446;21.636;2024-02-21T02:13:05;101165.88;;;5.49;100.00
79752;BME280;69234;47.446;21.636;2024-02-21T02:13:36;101162.25;;;5.50;100.00
79752;BME280;69234;47.446;21.636;2024-02-21T02:14:07;101156.22;;;5.46;100.00
79752;BME280;69234;47.446;21.636;2024-02-21T02:14:38;101166.56;;;5.53;100.00
79752;BME280;69234;47.446;21.636;2024-02-21T02:15:09;101164.69;;;5.55;100.00
79752;BME280;69234;47.446;21.636;2024-02-21T02:15:44;101160.38;;;5.52;100.00
79752;BME280;69234;47.446;21.636;2024-02-21T02:16:15;101173.41;;;5.58;100.00
79752;BME280;69234;47.446;21.636;2024-02-21T02:16:47;101168.38;;;5.52;100.00
79752;BME280;69234;47.446;21.636;2024-02-21T02:17:20;101170.03;;;5.55;100.00
79752;BME280;69234;47.446;21.636;2024-02-21T02:17:51;101168.22;;;5.55;100.00
79752;BME280;69234;47.446;21.636;2024-02-21T02:18:22;101162.81;;;5.57;100.00
79752;BME280;69234;47.446;21.636;2024-02-21T02:18:53;101162.81;;;5.57;100.00
79752;BME280;69234;47.446;21.636;2024-02-21T02:19:24;101157.78;;;5.51;100.00
79752;BME280;69234;47.446;21.636;2024-02-21T02:19:55;101154.03;;;5.55;100.00
79752;BME280;69234;47.446;21.636;2024-02-21T02:20:26;101153.34;;;5.51;100.00
79752;BME280;69234;47.446;21.636;2024-02-21T02:20:57;101159.22;;;5.58;100.00
79752;BME280;69234;47.446;21.636;2024-02-21T02:21:37;101158.41;;;5.56;100.00
79752;BME280;69234;47.446;21.636;2024-02-21T02:22:15;101164.69;;;5.55;100.00
79752;BME280;69234;47.446;21.636;2024-02-21T02:22:49;101167.22;;;5.58;100.00
79752;BME280;69234;47.446;21.636;2024-02-21T02:23:32;101164.34;;;5.61;100.00
79752;BME280;69234;47.446;21.636;2024-02-21T02:24:04;101153.69;;;5.61;100.00
79752;BME280;69234;47.446;21.636;2024-02-21T02:24:35;101167.97;;;5.60;100.00
79752;BME280;69234;47.446;21.636;2024-02-21T02:25:07;101167.13;;;5.59;100.00
79752;BME280;69234;47.446;21.636;2024-02-21T02:25:39;101171.59;;;5.59;100.00
79752;BME280;69234;47.446;21.636;2024-02-21T02:26:10;101160.13;;;5.57;100.00
79752;BME280;69234;47.446;21.636;2024-02-21T02:26:41;101169.69;;;5.61;100.00
79752;BME280;69234;47.446;21.636;2024-02-21T02:27:12;101170.56;;;5.61;100.00
79752;BME280;69234;47.446;21.636;2024-02-21T02:27:43;101174.16;;;5.60;100.00
79752;BME280;69234;47.446;21.636;2024-02-21T02:28:15;101161.88;;;5.58;100.00
79752;BME280;69234;47.446;21.636;2024-02-21T02:28:46;101158.41;;;5.56;100.00
79752;BME280;69234;47.446;21.636;2024-02-21T02:29:17;101171.50;;;5.60;100.00
79752;BME280;69234;47.446;21.636;2024-02-21T02:29:48;101167.97;;;5.60;100.00
79752;BME280;69234;47.446;21.636;2024-02-21T02:30:19;101161.94;;;5.56;100.00
79752;BME280;69234;47.446;21.636;2024-02-21T02:30:51;101161.94;;;5.56;100.00
79752;BME280;69234;47.446;21.636;2024-02-21T02:31:21;101154.81;;;5.57;100.00
79752;BME280;69234;47.446;21.636;2024-02-21T02:31:52;101158.25;;;5.59;100.00
79752;BME280;69234;47.446;21.636;2024-02-21T02:32:23;101154.91;;;5.55;100.00
79752;BME280;69234;47.446;21.636;2024-02-21T02:32:54;101150.69;;;5.51;100.00
79752;BME280;69234;47.446;21.636;2024-02-21T02:33:25;101159.03;;;5.61;100.00
79752;BME280;69234;47.446;21.636;2024-02-21T02:33:56;101159.13;;;5.59;100.00
79752;BME280;69234;47.446;21.636;2024-02-21T02:34:27;101146.97;;;5.54;100.00
79752;BME280;69234;47.446;21.636;2024-02-21T02:34:58;101158.25;;;5.59;100.00
79752;BME280;69234;47.446;21.636;2024-02-21T02:35:29;101160.94;;;5.59;100.00
79752;BME280;69234;47.446;21.636;2024-02-21T02:36:00;101163.50;;;5.60;100.00
79752;BME280;69234;47.446;21.636;2024-02-21T02:36:34;101160.94;;;5.59;100.00
79752;BME280;69234;47.446;21.636;2024-02-21T02:37:05;101159.22;;;5.58;100.00
79752;BME280;69234;47.446;21.636;2024-02-21T02:37:35;101144.41;;;5.52;100.00
79752;BME280;69234;47.446;21.636;2024-02-21T02:38:06;101159.22;;;5.58;100.00
79752;BME280;69234;47.446;21.636;2024-02-21T02:38:37;101154.81;;;5.57;100.00
79752;BME280;69234;47.446;21.636;2024-02-21T02:39:08;101150.81;;;5.48;100.00
79752;BME280;69234;47.446;21.636;2024-02-21T02:39:39;101155.75;;;5.56;100.00
79752;BME280;69234;47.446;21.636;2024-02-21T02:40:10;101148.78;;;5.53;100.00
79752;BME280;69234;47.446;21.636;2024-02-21T02:40:44;101160.22;;;5.55;100.00
79752;BME280;69234;47.446;21.636;2024-02-21T02:41:16;101160.06;;;5.58;100.00
79752;BME280;69234;47.446;21.636;2024-02-21T02:41:47;101156.56;;;5.58;100.00
79752;BME280;69234;47.446;21.636;2024-02-21T02:42:18;101161.94;;;5.56;100.00